Time,TemperatureF,DewpointF,PressureIn,WindDirection,WindDirectionDegrees,WindSpeedMPH,WindSpeedGustMPH,Humidity,HourlyPrecipIn,Conditions,Clouds,dailyrainin,SoftwareType,DateUTC
2013-07-02 00:03:00,63.1,62.0,29.92,WSW,248,0.0,2.0,95,0.31,,,1.83,weatherlink.com 1.10,2013-07-02 04:03:00,
2013-07-02 00:18:00,63.1,62.0,29.92,WSW,248,0.0,2.0,95,0.28,,,1.89,weatherlink.com 1.10,2013-07-02 04:18:00,
2013-07-02 00:33:00,62.9,62.0,29.92,WSW,248,0.0,1.0,95,0.24,,,1.93,weatherlink.com 1.10,2013-07-02 04:33:00,
2013-07-02 00:48:00,63.1,62.0,29.92,WSW,248,0.0,2.0,96,0.16,,,1.93,weatherlink.com 1.10,2013-07-02 04:48:00,
2013-07-02 01:03:00,63.0,62.0,29.92,WSW,248,0.0,0.0,96,0.10,,,1.93,weatherlink.com 1.10,2013-07-02 05:03:00,
2013-07-02 01:18:00,62.9,62.0,29.92,WSW,248,0.0,1.0,96,0.04,,,1.93,weatherlink.com 1.10,2013-07-02 05:18:00,
2013-07-02 01:33:00,62.9,62.0,29.92,WSW,246,0.0,3.0,95,0.00,,,1.93,weatherlink.com 1.10,2013-07-02 05:33:00,
2013-07-02 01:48:00,62.8,61.0,29.92,WSW,246,1.0,1.0,95,0.00,,,1.93,weatherlink.com 1.10,2013-07-02 05:48:00,
2013-07-02 02:03:00,62.7,61.0,29.92,WSW,246,1.0,1.0,95,0.00,,,1.93,weatherlink.com 1.10,2013-07-02 06:03:00,
2013-07-02 02:18:00,62.7,61.0,29.91,WSW,246,0.0,1.0,95,0.00,,,1.93,weatherlink.com 1.10,2013-07-02 06:18:00,
2013-07-02 02:33:00,62.7,62.0,29.91,WSW,248,2.0,2.0,96,0.00,,,1.93,weatherlink.com 1.10,2013-07-02 06:33:00,
2013-07-02 02:48:00,62.7,62.0,29.91,WSW,248,0.0,0.0,96,0.00,,,1.93,weatherlink.com 1.10,2013-07-02 06:48:00,
2013-07-02 03:03:00,62.8,62.0,29.91,West,263,0.0,0.0,96,0.00,,,1.93,weatherlink.com 1.10,2013-07-02 07:03:00,
2013-07-02 03:18:00,62.8,62.0,29.91,West,263,0.0,0.0,96,0.00,,,1.93,weatherlink.com 1.10,2013-07-02 07:18:00,
2013-07-02 03:33:00,62.8,62.0,29.91,West,263,0.0,2.0,96,0.00,,,1.93,weatherlink.com 1.10,2013-07-02 07:33:00,
2013-07-02 03:48:00,62.8,62.0,29.92,West,263,0.0,0.0,96,0.00,,,1.93,weatherlink.com 1.10,2013-07-02 07:48:00,
2013-07-02 04:03:00,62.8,62.0,29.92,West,263,0.0,1.0,96,0.00,,,1.93,weatherlink.com 1.10,2013-07-02 08:03:00,
2013-07-02 04:18:00,62.8,62.0,29.92,NNW,344,0.0,0.0,96,0.00,,,1.93,weatherlink.com 1.10,2013-07-02 08:18:00,
2013-07-02 04:33:00,62.9,62.0,29.93,NNW,344,0.0,0.0,96,0.00,,,0.00,weatherlink.com 1.10,2013-07-02 08:33:00,
2013-07-02 04:48:00,63.1,62.0,29.93,NNW,344,0.0,0.0,96,0.00,,,0.00,weatherlink.com 1.10,2013-07-02 08:48:00,
2013-07-02 05:04:00,63.1,62.0,29.93,North,355,0.0,1.0,96,0.00,,,0.00,weatherlink.com 1.10,2013-07-02 09:04:00,
2013-07-02 05:19:00,62.9,62.0,29.94,North,355,0.0,0.0,96,0.00,,,0.00,weatherlink.com 1.10,2013-07-02 09:19:00,
2013-07-02 05:34:00,62.9,62.0,29.93,North,355,0.0,2.0,96,0.00,,,0.00,weatherlink.com 1.10,2013-07-02 09:34:00,
2013-07-02 05:49:00,62.8,62.0,29.94,North,355,0.0,1.0,96,0.00,,,0.00,weatherlink.com 1.10,2013-07-02 09:49:00,
2013-07-02 06:04:00,62.8,62.0,29.94,North,355,0.0,1.0,96,0.00,,,0.00,weatherlink.com 1.10,2013-07-02 10:04:00,
2013-07-02 06:19:00,62.7,62.0,29.94,North,355,0.0,0.0,96,0.00,,,0.00,weatherlink.com 1.10,2013-07-02 10:19:00,
2013-07-02 06:34:00,62.6,62.0,29.95,North,355,0.0,1.0,96,0.00,,,0.00,weatherlink.com 1.10,2013-07-02 10:34:00,
2013-07-02 06:49:00,62.7,62.0,29.96,North,355,0.0,0.0,96,0.00,,,0.00,weatherlink.com 1.10,2013-07-02 10:49:00,
2013-07-02 07:04:00,62.7,62.0,29.96,North,355,0.0,0.0,96,0.00,,,0.00,weatherlink.com 1.10,2013-07-02 11:04:00,
2013-07-02 07:19:00,62.9,62.0,29.96,North,355,0.0,1.0,96,0.00,,,0.00,weatherlink.com 1.10,2013-07-02 11:19:00,
2013-07-02 07:34:00,63.2,62.0,29.97,North,355,0.0,0.0,96,0.01,,,0.01,weatherlink.com 1.10,2013-07-02 11:34:00,
2013-07-02 07:49:00,63.4,62.0,29.98,North,355,0.0,0.0,96,0.01,,,0.01,weatherlink.com 1.10,2013-07-02 11:49:00,
2013-07-02 08:04:00,63.6,63.0,29.98,North,355,0.0,1.0,96,0.01,,,0.01,weatherlink.com 1.10,2013-07-02 12:04:00,
2013-07-02 08:20:00,63.9,63.0,29.98,North,355,0.0,1.0,97,0.01,,,0.01,weatherlink.com 1.10,2013-07-02 12:20:00,
2013-07-02 08:34:00,64.6,64.0,29.98,North,355,0.0,1.0,97,0.01,,,0.02,weatherlink.com 1.10,2013-07-02 12:34:00,
2013-07-02 08:49:00,65.5,65.0,29.98,North,355,0.0,0.0,97,0.01,,,0.02,weatherlink.com 1.10,2013-07-02 12:49:00,
2013-07-02 09:04:00,66.8,66.0,29.99,WNW,289,1.0,2.0,97,0.01,,,0.02,weatherlink.com 1.10,2013-07-02 13:04:00,
2013-07-02 09:19:00,67.2,66.0,29.99,West,280,2.0,5.0,97,0.01,,,0.02,weatherlink.com 1.10,2013-07-02 13:19:00,
2013-07-02 09:34:00,68.1,67.0,29.99,West,272,0.0,2.0,97,0.00,,,0.02,weatherlink.com 1.10,2013-07-02 13:34:00,
2013-07-02 09:49:00,68.8,67.0,30.00,SW,219,1.0,2.0,94,0.00,,,0.02,weatherlink.com 1.10,2013-07-02 13:49:00,
2013-07-02 10:04:00,69.2,66.0,29.99,WSW,249,1.0,4.0,90,0.00,,,0.02,weatherlink.com 1.10,2013-07-02 14:04:00,
2013-07-02 10:19:00,70.0,66.0,29.99,West,279,0.0,6.0,87,0.00,,,0.02,weatherlink.com 1.10,2013-07-02 14:19:00,
2013-07-02 10:34:00,71.1,66.0,30.00,WSW,243,1.0,4.0,85,0.00,,,0.02,weatherlink.com 1.10,2013-07-02 14:34:00,
2013-07-02 10:49:00,72.1,66.0,30.00,WNW,290,0.0,5.0,81,0.00,,,0.02,weatherlink.com 1.10,2013-07-02 14:49:00,
2013-07-02 11:04:00,74.2,66.0,30.00,SW,232,5.0,6.0,75,0.00,,,0.02,weatherlink.com 1.10,2013-07-02 15:04:00,
2013-07-02 11:19:00,75.3,67.0,30.00,WSW,244,1.0,7.0,76,0.00,,,0.02,weatherlink.com 1.10,2013-07-02 15:19:00,
2013-07-02 11:34:00,74.8,68.0,30.01,West,270,3.0,8.0,78,0.00,,,0.02,weatherlink.com 1.10,2013-07-02 15:34:00,
2013-07-02 11:49:00,76.4,68.0,30.01,SW,236,0.0,5.0,75,0.00,,,0.02,weatherlink.com 1.10,2013-07-02 15:49:00,
2013-07-02 12:05:00,77.0,67.0,30.00,SSW,207,0.0,7.0,72,0.00,,,0.02,weatherlink.com 1.10,2013-07-02 16:05:00,
2013-07-02 12:20:00,76.2,66.0,30.00,West,262,1.0,5.0,71,0.00,,,0.02,weatherlink.com 1.10,2013-07-02 16:20:00,
2013-07-02 12:35:00,76.6,67.0,30.00,North,11,1.0,4.0,73,0.00,,,0.02,weatherlink.com 1.10,2013-07-02 16:35:00,
2013-07-02 12:50:00,77.5,68.0,30.00,SE,129,1.0,4.0,73,0.00,,,0.02,weatherlink.com 1.10,2013-07-02 16:50:00,
2013-07-02 13:05:00,77.1,67.0,30.00,West,264,4.0,7.0,72,0.00,,,0.02,weatherlink.com 1.10,2013-07-02 17:05:00,
2013-07-02 13:20:00,76.3,67.0,30.00,SW,235,2.0,6.0,73,0.00,,,0.02,weatherlink.com 1.10,2013-07-02 17:20:00,
2013-07-02 13:35:00,74.7,67.0,30.00,SSW,206,0.0,3.0,76,0.00,,,0.02,weatherlink.com 1.10,2013-07-02 17:35:00,
2013-07-02 13:50:00,73.2,66.0,30.01,SW,235,1.0,4.0,78,0.00,,,0.02,weatherlink.com 1.10,2013-07-02 17:50:00,
2013-07-02 14:05:00,72.0,67.0,30.01,WNW,283,0.0,3.0,83,0.00,,,0.02,weatherlink.com 1.10,2013-07-02 18:05:00,
2013-07-02 14:20:00,70.9,66.0,30.02,NNE,25,0.0,1.0,85,0.03,,,0.05,weatherlink.com 1.10,2013-07-02 18:20:00,
2013-07-02 14:35:00,69.5,66.0,30.02,SW,230,0.0,3.0,88,0.06,,,0.08,weatherlink.com 1.10,2013-07-02 18:35:00,
2013-07-02 14:50:00,68.3,65.0,30.02,WSW,249,1.0,1.0,90,0.10,,,0.12,weatherlink.com 1.10,2013-07-02 18:50:00,
2013-07-02 15:05:00,68.2,66.0,30.02,West,275,0.0,4.0,93,0.14,,,0.16,weatherlink.com 1.10,2013-07-02 19:05:00,
2013-07-02 15:20:00,69.5,68.0,30.01,WSW,244,0.0,3.0,95,0.13,,,0.18,weatherlink.com 1.10,2013-07-02 19:20:00,
2013-07-02 15:35:00,69.8,67.0,30.01,West,265,3.0,8.0,89,0.11,,,0.19,weatherlink.com 1.10,2013-07-02 19:35:00,
2013-07-02 15:50:00,70.1,67.0,30.01,West,275,3.0,4.0,90,0.07,,,0.19,weatherlink.com 1.10,2013-07-02 19:50:00,
2013-07-02 16:05:00,70.5,67.0,30.01,West,279,5.0,6.0,87,0.03,,,0.19,weatherlink.com 1.10,2013-07-02 20:05:00,
2013-07-02 16:20:00,70.0,66.0,30.01,West,265,0.0,5.0,87,0.01,,,0.19,weatherlink.com 1.10,2013-07-02 20:20:00,
2013-07-02 16:35:00,70.0,66.0,30.01,West,267,0.0,2.0,87,0.00,,,0.19,weatherlink.com 1.10,2013-07-02 20:35:00,
2013-07-02 16:53:00,70.1,67.0,30.01,West,261,0.0,3.0,88,0.00,,,0.19,weatherlink.com 1.10,2013-07-02 20:53:00,
2013-07-02 17:05:00,70.5,67.0,30.00,WSW,239,0.0,2.0,87,0.00,,,0.19,weatherlink.com 1.10,2013-07-02 21:05:00,
2013-07-02 17:20:00,71.1,67.0,30.01,East,82,0.0,2.0,86,0.00,,,0.19,weatherlink.com 1.10,2013-07-02 21:20:00,
2013-07-02 17:35:00,71.0,65.0,30.01,West,277,0.0,5.0,81,0.00,,,0.19,weatherlink.com 1.10,2013-07-02 21:35:00,
2013-07-02 17:50:00,70.9,66.0,30.01,WSW,239,0.0,3.0,83,0.00,,,0.19,weatherlink.com 1.10,2013-07-02 21:50:00,
2013-07-02 18:05:00,71.3,66.0,30.02,SSE,157,0.0,3.0,83,0.00,,,0.19,weatherlink.com 1.10,2013-07-02 22:05:00,
2013-07-02 18:20:00,71.4,66.0,30.02,WSW,247,0.0,5.0,83,0.00,,,0.19,weatherlink.com 1.10,2013-07-02 22:20:00,
2013-07-02 18:35:00,70.8,66.0,30.02,South,188,1.0,2.0,84,0.00,,,0.19,weatherlink.com 1.10,2013-07-02 22:35:00,
2013-07-02 18:50:00,70.4,65.0,30.03,SW,217,1.0,2.0,84,0.00,,,0.19,weatherlink.com 1.10,2013-07-02 22:50:00,
2013-07-02 19:05:00,70.1,65.0,30.04,West,263,0.0,2.0,83,0.00,,,0.19,weatherlink.com 1.10,2013-07-02 23:05:00,
2013-07-02 19:20:00,69.6,65.0,30.05,WSW,237,0.0,3.0,85,0.00,,,0.19,weatherlink.com 1.10,2013-07-02 23:20:00,
2013-07-02 19:35:00,68.9,64.0,30.04,WSW,238,0.0,2.0,85,0.00,,,0.19,weatherlink.com 1.10,2013-07-02 23:35:00,
2013-07-02 19:50:00,68.4,64.0,30.05,SW,225,1.0,1.0,86,0.00,,,0.19,weatherlink.com 1.10,2013-07-02 23:50:00,
2013-07-02 20:05:00,67.8,64.0,30.05,SW,225,0.0,2.0,88,0.00,,,0.19,weatherlink.com 1.10,2013-07-03 00:05:00,
2013-07-02 20:20:00,67.3,64.0,30.05,West,266,0.0,4.0,88,0.00,,,0.19,weatherlink.com 1.10,2013-07-03 00:20:00,
2013-07-02 20:37:00,67.0,64.0,30.06,SW,234,0.0,2.0,89,0.00,,,0.19,weatherlink.com 1.10,2013-07-03 00:37:00,
2013-07-02 20:50:00,66.7,64.0,30.07,ENE,57,0.0,1.0,90,0.00,,,0.19,weatherlink.com 1.10,2013-07-03 00:50:00,
2013-07-02 21:05:00,66.6,64.0,30.07,NE,52,0.0,1.0,91,0.02,,,0.21,weatherlink.com 1.10,2013-07-03 01:05:00,
2013-07-02 21:20:00,66.3,64.0,30.06,NE,52,0.0,0.0,93,0.06,,,0.25,weatherlink.com 1.10,2013-07-03 01:20:00,
2013-07-02 21:35:00,66.1,64.0,30.07,WSW,257,0.0,2.0,94,0.10,,,0.29,weatherlink.com 1.10,2013-07-03 01:35:00,
2013-07-02 21:50:00,66.3,65.0,30.08,East,96,0.0,2.0,94,0.11,,,0.30,weatherlink.com 1.10,2013-07-03 01:50:00,
2013-07-02 22:20:00,66.4,65.0,30.10,West,270,0.0,2.0,94,0.05,,,0.31,weatherlink.com 1.10,2013-07-03 02:20:00,
2013-07-02 22:35:00,66.2,65.0,30.09,WSW,246,0.0,2.0,94,0.03,,,0.32,weatherlink.com 1.10,2013-07-03 02:35:00,
2013-07-02 23:20:00,65.7,64.0,30.09,WSW,256,0.0,3.0,94,0.01,,,0.32,weatherlink.com 1.10,2013-07-03 03:20:00,
2013-07-02 23:35:00,65.1,63.0,30.09,WSW,256,0.0,1.0,94,0.00,,,0.32,weatherlink.com 1.10,2013-07-03 03:35:00,
2013-07-02 23:50:00,64.9,64.0,30.09,WSW,256,0.0,1.0,95,0.00,,,0.32,weatherlink.com 1.10,2013-07-03 03:50:00,